sensor_id;sensor_type;location;lat;lon;timestamp;P1;durP1;ratioP1;P2;durP2;ratioP2
21601;SDS011;10963;50.934;4.668;2022-09-03T00:01:34;4.93;;;2.70;;
21601;SDS011;10963;50.934;4.668;2022-09-03T00:07:14;4.43;;;2.90;;
21601;SDS011;10963;50.934;4.668;2022-09-03T00:09:50;3.83;;;2.57;;
21601;SDS011;10963;50.934;4.668;2022-09-03T00:12:25;4.23;;;3.07;;
21601;SDS011;10963;50.934;4.668;2022-09-03T00:17:27;2.97;;;2.67;;
21601;SDS011;10963;50.934;4.668;2022-09-03T00:20:18;3.30;;;2.40;;
21601;SDS011;10963;50.934;4.668;2022-09-03T00:22:50;2.63;;;2.43;;
21601;SDS011;10963;50.934;4.668;2022-09-03T00:25:35;4.83;;;2.60;;
21601;SDS011;10963;50.934;4.668;2022-09-03T00:28:08;2.57;;;2.37;;
21601;SDS011;10963;50.934;4.668;2022-09-03T00:30:40;4.57;;;2.70;;
21601;SDS011;10963;50.934;4.668;2022-09-03T00:33:12;2.93;;;2.60;;
21601;SDS011;10963;50.934;4.668;2022-09-03T00:35:45;3.17;;;2.77;;
21601;SDS011;10963;50.934;4.668;2022-09-03T00:38:15;6.80;;;3.07;;
21601;SDS011;10963;50.934;4.668;2022-09-03T00:49:27;2.60;;;2.40;;
21601;SDS011;10963;50.934;4.668;2022-09-03T01:00:41;3.10;;;2.60;;
21601;SDS011;10963;50.934;4.668;2022-09-03T01:03:11;5.50;;;2.57;;
21601;SDS011;10963;50.934;4.668;2022-09-03T01:30:56;3.87;;;2.57;;
21601;SDS011;10963;50.934;4.668;2022-09-03T01:33:40;3.30;;;2.20;;
21601;SDS011;10963;50.934;4.668;2022-09-03T01:39:10;6.27;;;2.37;;
21601;SDS011;10963;50.934;4.668;2022-09-03T01:50:14;2.53;;;2.33;;
21601;SDS011;10963;50.934;4.668;2022-09-03T01:52:54;2.63;;;2.43;;
21601;SDS011;10963;50.934;4.668;2022-09-03T01:58:34;5.20;;;2.70;;
21601;SDS011;10963;50.934;4.668;2022-09-03T02:01:18;4.80;;;2.73;;
21601;SDS011;10963;50.934;4.668;2022-09-03T02:03:59;2.60;;;2.40;;
21601;SDS011;10963;50.934;4.668;2022-09-03T02:06:28;4.00;;;3.00;;
21601;SDS011;10963;50.934;4.668;2022-09-03T02:08:58;3.10;;;2.70;;
21601;SDS011;10963;50.934;4.668;2022-09-03T02:11:25;2.67;;;2.47;;
21601;SDS011;10963;50.934;4.668;2022-09-03T02:13:53;3.53;;;2.83;;
21601;SDS011;10963;50.934;4.668;2022-09-03T02:16:24;5.13;;;2.43;;
21601;SDS011;10963;50.934;4.668;2022-09-03T02:18:59;8.77;;;3.10;;
21601;SDS011;10963;50.934;4.668;2022-09-03T02:21:32;7.77;;;2.60;;
21601;SDS011;10963;50.934;4.668;2022-09-03T02:24:03;7.03;;;2.50;;
21601;SDS011;10963;50.934;4.668;2022-09-03T02:26:32;3.17;;;2.33;;
21601;SDS011;10963;50.934;4.668;2022-09-03T02:29:03;6.07;;;2.77;;
21601;SDS011;10963;50.934;4.668;2022-09-03T02:31:34;3.70;;;2.70;;
21601;SDS011;10963;50.934;4.668;2022-09-03T02:34:05;4.40;;;2.80;;
21601;SDS011;10963;50.934;4.668;2022-09-03T02:36:34;4.10;;;2.40;;
21601;SDS011;10963;50.934;4.668;2022-09-03T02:39:05;3.20;;;2.70;;
21601;SDS011;10963;50.934;4.668;2022-09-03T02:41:33;3.80;;;2.40;;
21601;SDS011;10963;50.934;4.668;2022-09-03T02:46:42;3.93;;;2.50;;
21601;SDS011;10963;50.934;4.668;2022-09-03T02:49:12;3.83;;;2.67;;
21601;SDS011;10963;50.934;4.668;2022-09-03T02:51:42;2.97;;;2.67;;
21601;SDS011;10963;50.934;4.668;2022-09-03T02:54:09;3.77;;;2.53;;
21601;SDS011;10963;50.934;4.668;2022-09-03T02:56:35;2.70;;;2.50;;
21601;SDS011;10963;50.934;4.668;2022-09-03T02:59:04;3.33;;;2.60;;
21601;SDS011;10963;50.934;4.668;2022-09-03T03:01:35;2.80;;;2.60;;
21601;SDS011;10963;50.934;4.668;2022-09-03T03:04:01;3.83;;;2.70;;
21601;SDS011;10963;50.934;4.668;2022-09-03T03:06:32;4.57;;;2.90;;
21601;SDS011;10963;50.934;4.668;2022-09-03T03:09:00;2.97;;;2.77;;
21601;SDS011;10963;50.934;4.668;2022-09-03T03:11:31;4.93;;;2.87;;
21601;SDS011;10963;50.934;4.668;2022-09-03T03:14:01;3.27;;;2.60;;
21601;SDS011;10963;50.934;4.668;2022-09-03T03:16:27;4.33;;;2.70;;
21601;SDS011;10963;50.934;4.668;2022-09-03T03:18:54;7.03;;;2.70;;
21601;SDS011;10963;50.934;4.668;2022-09-03T03:21:20;3.00;;;2.53;;
21601;SDS011;10963;50.934;4.668;2022-09-03T03:23:46;4.63;;;2.50;;
21601;SDS011;10963;50.934;4.668;2022-09-03T03:26:15;2.70;;;2.47;;
21601;SDS011;10963;50.934;4.668;2022-09-03T03:28:45;6.30;;;2.70;;
21601;SDS011;10963;50.934;4.668;2022-09-03T03:31:17;5.47;;;3.27;;
21601;SDS011;10963;50.934;4.668;2022-09-03T03:33:49;4.13;;;2.70;;
21601;SDS011;10963;50.934;4.668;2022-09-03T03:36:21;3.57;;;2.63;;
21601;SDS011;10963;50.934;4.668;2022-09-03T03:38:52;5.63;;;2.43;;
21601;SDS011;10963;50.934;4.668;2022-09-03T03:41:22;3.70;;;2.60;;
21601;SDS011;10963;50.934;4.668;2022-09-03T03:43:56;4.07;;;2.83;;
21601;SDS011;10963;50.934;4.668;2022-09-03T03:46:30;2.90;;;2.57;;
21601;SDS011;10963;50.934;4.668;2022-09-03T03:49:05;3.83;;;2.87;;
21601;SDS011;10963;50.934;4.668;2022-09-03T03:51:36;4.43;;;3.00;;
21601;SDS011;10963;50.934;4.668;2022-09-03T03:54:04;3.83;;;2.93;;
21601;SDS011;10963;50.934;4.668;2022-09-03T03:56:30;6.73;;;3.00;;
21601;SDS011;10963;50.934;4.668;2022-09-03T03:58:59;3.63;;;3.27;;
21601;SDS011;10963;50.934;4.668;2022-09-03T04:01:28;8.10;;;2.70;;
21601;SDS011;10963;50.934;4.668;2022-09-03T04:03:59;3.77;;;3.47;;
21601;SDS011;10963;50.934;4.668;2022-09-03T04:06:26;5.57;;;2.63;;
21601;SDS011;10963;50.934;4.668;2022-09-03T04:08:55;4.63;;;2.80;;
21601;SDS011;10963;50.934;4.668;2022-09-03T04:11:24;5.93;;;2.53;;
21601;SDS011;10963;50.934;4.668;2022-09-03T04:13:54;3.17;;;2.60;;
21601;SDS011;10963;50.934;4.668;2022-09-03T04:16:24;4.37;;;2.83;;
21601;SDS011;10963;50.934;4.668;2022-09-03T04:18:54;6.73;;;2.97;;
21601;SDS011;10963;50.934;4.668;2022-09-03T04:21:22;11.53;;;3.20;;
21601;SDS011;10963;50.934;4.668;2022-09-03T04:23:51;13.30;;;3.67;;
21601;SDS011;10963;50.934;4.668;2022-09-03T04:26:25;10.93;;;3.20;;
21601;SDS011;10963;50.934;4.668;2022-09-03T04:28:57;8.93;;;2.83;;
21601;SDS011;10963;50.934;4.668;2022-09-03T04:31:25;9.67;;;2.93;;
21601;SDS011;10963;50.934;4.668;2022-09-03T04:33:51;4.27;;;2.53;;
21601;SDS011;10963;50.934;4.668;2022-09-03T04:36:17;9.23;;;3.47;;
21601;SDS011;10963;50.934;4.668;2022-09-03T04:38:53;8.77;;;2.97;;
21601;SDS011;10963;50.934;4.668;2022-09-03T04:41:23;6.07;;;2.90;;
21601;SDS011;10963;50.934;4.668;2022-09-03T04:43:51;6.73;;;3.17;;
21601;SDS011;10963;50.934;4.668;2022-09-03T04:46:20;4.70;;;3.00;;
21601;SDS011;10963;50.934;4.668;2022-09-03T04:48:53;4.13;;;3.20;;
21601;SDS011;10963;50.934;4.668;2022-09-03T04:51:23;13.33;;;3.30;;
21601;SDS011;10963;50.934;4.668;2022-09-03T04:53:58;6.27;;;3.23;;
21601;SDS011;10963;50.934;4.668;2022-09-03T04:56:32;3.07;;;2.73;;
21601;SDS011;10963;50.934;4.668;2022-09-03T04:59:00;6.27;;;2.90;;
21601;SDS011;10963;50.934;4.668;2022-09-03T05:01:30;12.53;;;3.63;;
21601;SDS011;10963;50.934;4.668;2022-09-03T05:03:58;23.50;;;3.73;;
21601;SDS011;10963;50.934;4.668;2022-09-03T05:06:25;14.23;;;3.57;;
21601;SDS011;10963;50.934;4.668;2022-09-03T05:08:52;15.67;;;4.00;;
21601;SDS011;10963;50.934;4.668;2022-09-03T05:11:19;12.83;;;3.60;;
21601;SDS011;10963;50.934;4.668;2022-09-03T05:13:48;9.10;;;3.60;;
21601;SDS011;10963;50.934;4.668;2022-09-03T05:16:16;10.43;;;3.37;;
21601;SDS011;10963;50.934;4.668;2022-09-03T05:18:50;7.67;;;3.40;;
21601;SDS011;10963;50.934;4.668;2022-09-03T05:21:18;6.67;;;3.23;;
21601;SDS011;10963;50.934;4.668;2022-09-03T05:23:44;6.60;;;3.40;;
21601;SDS011;10963;50.934;4.668;2022-09-03T05:26:21;6.20;;;2.93;;
21601;SDS011;10963;50.934;4.668;2022-09-03T05:28:51;5.20;;;3.43;;
21601;SDS011;10963;50.934;4.668;2022-09-03T05:31:24;5.03;;;3.00;;
21601;SDS011;10963;50.934;4.668;2022-09-03T05:33:56;9.80;;;2.80;;
21601;SDS011;10963;50.934;4.668;2022-09-03T05:36:24;3.57;;;2.60;;
21601;SDS011;10963;50.934;4.668;2022-09-03T05:38:54;6.63;;;3.10;;
21601;SDS011;10963;50.934;4.668;2022-09-03T05:41:22;5.67;;;2.90;;
21601;SDS011;10963;50.934;4.668;2022-09-03T05:43:51;4.17;;;2.90;;
21601;SDS011;10963;50.934;4.668;2022-09-03T05:46:23;5.93;;;2.83;;
21601;SDS011;10963;50.934;4.668;2022-09-03T05:49:03;2.80;;;2.43;;
21601;SDS011;10963;50.934;4.668;2022-09-03T05:51:32;8.50;;;2.80;;
21601;SDS011;10963;50.934;4.668;2022-09-03T05:54:01;5.37;;;2.60;;
21601;SDS011;10963;50.934;4.668;2022-09-03T05:56:34;4.60;;;2.63;;
21601;SDS011;10963;50.934;4.668;2022-09-03T05:59:03;5.97;;;2.97;;
21601;SDS011;10963;50.934;4.668;2022-09-03T06:01:42;6.30;;;2.90;;
21601;SDS011;10963;50.934;4.668;2022-09-03T06:04:12;3.90;;;2.43;;
21601;SDS011;10963;50.934;4.668;2022-09-03T06:06:40;4.50;;;2.70;;
21601;SDS011;10963;50.934;4.668;2022-09-03T06:09:09;3.53;;;2.47;;
21601;SDS011;10963;50.934;4.668;2022-09-03T06:11:40;4.87;;;2.37;;
21601;SDS011;10963;50.934;4.668;2022-09-03T06:14:11;3.13;;;2.77;;
21601;SDS011;10963;50.934;4.668;2022-09-03T06:16:40;5.03;;;3.40;;
21601;SDS011;10963;50.934;4.668;2022-09-03T06:19:07;2.73;;;2.43;;
21601;SDS011;10963;50.934;4.668;2022-09-03T06:21:38;2.83;;;2.47;;
21601;SDS011;10963;50.934;4.668;2022-09-03T06:24:07;5.90;;;2.53;;
21601;SDS011;10963;50.934;4.668;2022-09-03T06:26:38;8.37;;;2.40;;
21601;SDS011;10963;50.934;4.668;2022-09-03T06:29:04;8.03;;;3.00;;
21601;SDS011;10963;50.934;4.668;2022-09-03T06:31:35;8.27;;;2.50;;
21601;SDS011;10963;50.934;4.668;2022-09-03T06:34:03;4.53;;;2.80;;
21601;SDS011;10963;50.934;4.668;2022-09-03T06:36:32;11.73;;;2.93;;
21601;SDS011;10963;50.934;4.668;2022-09-03T06:39:00;3.57;;;2.53;;
21601;SDS011;10963;50.934;4.668;2022-09-03T06:41:27;2.80;;;2.47;;
21601;SDS011;10963;50.934;4.668;2022-09-03T06:44:03;4.30;;;2.80;;
21601;SDS011;10963;50.934;4.668;2022-09-03T06:46:33;2.80;;;2.57;;
21601;SDS011;10963;50.934;4.668;2022-09-03T06:49:02;6.10;;;2.70;;
21601;SDS011;10963;50.934;4.668;2022-09-03T06:51:31;5.80;;;2.77;;
21601;SDS011;10963;50.934;4.668;2022-09-03T06:53:59;4.73;;;2.77;;
21601;SDS011;10963;50.934;4.668;2022-09-03T06:56:26;4.33;;;2.90;;
21601;SDS011;10963;50.934;4.668;2022-09-03T06:58:52;4.83;;;2.70;;
21601;SDS011;10963;50.934;4.668;2022-09-03T07:01:25;5.57;;;2.60;;
21601;SDS011;10963;50.934;4.668;2022-09-03T07:03:55;8.37;;;3.20;;
21601;SDS011;10963;50.934;4.668;2022-09-03T07:06:32;5.50;;;2.77;;
21601;SDS011;10963;50.934;4.668;2022-09-03T07:09:06;5.37;;;2.90;;
21601;SDS011;10963;50.934;4.668;2022-09-03T07:11:34;5.83;;;2.90;;
21601;SDS011;10963;50.934;4.668;2022-09-03T07:14:13;5.03;;;2.63;;
21601;SDS011;10963;50.934;4.668;2022-09-03T07:16:40;4.90;;;2.60;;
21601;SDS011;10963;50.934;4.668;2022-09-03T07:19:10;4.70;;;2.63;;
21601;SDS011;10963;50.934;4.668;2022-09-03T07:21:39;3.83;;;2.80;;
21601;SDS011;10963;50.934;4.668;2022-09-03T07:24:10;4.73;;;2.60;;
21601;SDS011;10963;50.934;4.668;2022-09-03T07:26:40;10.47;;;2.87;;
21601;SDS011;10963;50.934;4.668;2022-09-03T07:29:10;4.53;;;2.90;;
21601;SDS011;10963;50.934;4.668;2022-09-03T07:31:37;4.23;;;2.30;;
21601;SDS011;10963;50.934;4.668;2022-09-03T07:34:10;5.90;;;2.53;;
21601;SDS011;10963;50.934;4.668;2022-09-03T07:36:38;6.40;;;2.67;;
21601;SDS011;10963;50.934;4.668;2022-09-03T07:39:12;2.57;;;2.37;;
21601;SDS011;10963;50.934;4.668;2022-09-03T07:41:39;3.60;;;2.33;;
21601;SDS011;10963;50.934;4.668;2022-09-03T07:44:10;4.03;;;2.43;;
21601;SDS011;10963;50.934;4.668;2022-09-03T07:46:40;7.73;;;2.70;;
21601;SDS011;10963;50.934;4.668;2022-09-03T07:49:07;3.97;;;2.67;;
21601;SDS011;10963;50.934;4.668;2022-09-03T07:51:34;5.27;;;2.67;;
21601;SDS011;10963;50.934;4.668;2022-09-03T07:54:05;5.07;;;2.70;;
21601;SDS011;10963;50.934;4.668;2022-09-03T07:56:38;8.50;;;2.70;;
21601;SDS011;10963;50.934;4.668;2022-09-03T07:59:07;5.95;;;2.55;;
21601;SDS011;10963;50.934;4.668;2022-09-03T08:01:36;8.50;;;2.50;;
21601;SDS011;10963;50.934;4.668;2022-09-03T08:04:05;4.13;;;2.35;;
21601;SDS011;10963;50.934;4.668;2022-09-03T08:06:37;4.00;;;2.47;;
21601;SDS011;10963;50.934;4.668;2022-09-03T08:09:07;4.07;;;2.70;;
21601;SDS011;10963;50.934;4.668;2022-09-03T08:11:38;3.57;;;2.40;;
21601;SDS011;10963;50.934;4.668;2022-09-03T08:14:06;4.93;;;2.40;;
21601;SDS011;10963;50.934;4.668;2022-09-03T08:16:34;7.30;;;2.70;;
21601;SDS011;10963;50.934;4.668;2022-09-03T08:19:02;4.50;;;3.22;;
21601;SDS011;10963;50.934;4.668;2022-09-03T08:21:33;10.68;;;3.10;;
21601;SDS011;10963;50.934;4.668;2022-09-03T08:24:02;8.07;;;3.15;;
21601;SDS011;10963;50.934;4.668;2022-09-03T08:26:29;4.97;;;2.50;;
21601;SDS011;10963;50.934;4.668;2022-09-03T08:29:00;5.30;;;2.50;;
21601;SDS011;10963;50.934;4.668;2022-09-03T08:31:26;11.13;;;2.92;;
21601;SDS011;10963;50.934;4.668;2022-09-03T08:33:57;5.43;;;3.05;;
21601;SDS011;10963;50.934;4.668;2022-09-03T08:36:33;6.05;;;2.90;;
21601;SDS011;10963;50.934;4.668;2022-09-03T08:39:01;8.32;;;3.10;;
21601;SDS011;10963;50.934;4.668;2022-09-03T08:47:21;4.18;;;3.10;;
21601;SDS011;10963;50.934;4.668;2022-09-03T08:55:49;4.22;;;2.92;;
21601;SDS011;10963;50.934;4.668;2022-09-03T08:58:19;4.38;;;3.10;;
21601;SDS011;10963;50.934;4.668;2022-09-03T09:11:42;7.40;;;2.75;;
21601;SDS011;10963;50.934;4.668;2022-09-03T09:14:44;9.90;;;3.08;;
21601;SDS011;10963;50.934;4.668;2022-09-03T09:22:40;4.47;;;3.42;;
21601;SDS011;10963;50.934;4.668;2022-09-03T09:25:27;7.28;;;3.20;;
21601;SDS011;10963;50.934;4.668;2022-09-03T09:28:03;3.67;;;3.20;;
21601;SDS011;10963;50.934;4.668;2022-09-03T09:30:45;10.35;;;3.33;;
21601;SDS011;10963;50.934;4.668;2022-09-03T09:33:13;7.07;;;3.30;;
21601;SDS011;10963;50.934;4.668;2022-09-03T09:35:40;7.82;;;3.10;;
21601;SDS011;10963;50.934;4.668;2022-09-03T09:38:11;4.22;;;3.50;;
21601;SDS011;10963;50.934;4.668;2022-09-03T09:40:38;8.93;;;3.35;;
21601;SDS011;10963;50.934;4.668;2022-09-03T09:43:13;19.60;;;3.97;;
21601;SDS011;10963;50.934;4.668;2022-09-03T09:45:46;8.38;;;3.50;;
21601;SDS011;10963;50.934;4.668;2022-09-03T09:53:37;3.38;;;3.08;;
21601;SDS011;10963;50.934;4.668;2022-09-03T09:56:04;4.20;;;3.30;;
21601;SDS011;10963;50.934;4.668;2022-09-03T09:58:33;4.15;;;3.28;;
21601;SDS011;10963;50.934;4.668;2022-09-03T10:03:38;6.07;;;3.30;;
21601;SDS011;10963;50.934;4.668;2022-09-03T10:06:18;6.32;;;3.58;;
21601;SDS011;10963;50.934;4.668;2022-09-03T10:09:19;5.90;;;3.70;;
21601;SDS011;10963;50.934;4.668;2022-09-03T10:12:12;7.05;;;4.15;;
21601;SDS011;10963;50.934;4.668;2022-09-03T10:15:07;6.15;;;3.95;;
21601;SDS011;10963;50.934;4.668;2022-09-03T10:20:53;4.30;;;3.95;;
21601;SDS011;10963;50.934;4.668;2022-09-03T10:26:19;6.80;;;3.72;;
21601;SDS011;10963;50.934;4.668;2022-09-03T10:28:55;4.20;;;3.70;;
21601;SDS011;10963;50.934;4.668;2022-09-03T10:42:32;6.70;;;4.57;;
21601;SDS011;10963;50.934;4.668;2022-09-03T10:46:06;6.05;;;4.05;;
21601;SDS011;10963;50.934;4.668;2022-09-03T11:06:57;4.32;;;3.95;;
21601;SDS011;10963;50.934;4.668;2022-09-03T11:09:32;5.53;;;4.57;;
21601;SDS011;10963;50.934;4.668;2022-09-03T11:12:07;7.40;;;4.28;;
21601;SDS011;10963;50.934;4.668;2022-09-03T11:14:38;9.10;;;5.03;;
21601;SDS011;10963;50.934;4.668;2022-09-03T11:17:11;4.47;;;3.92;;
21601;SDS011;10963;50.934;4.668;2022-09-03T11:20:10;5.15;;;4.65;;
21601;SDS011;10963;50.934;4.668;2022-09-03T11:22:39;4.97;;;4.50;;
21601;SDS011;10963;50.934;4.668;2022-09-03T11:25:07;5.32;;;4.63;;
21601;SDS011;10963;50.934;4.668;2022-09-03T11:30:08;8.98;;;4.00;;
21601;SDS011;10963;50.934;4.668;2022-09-03T11:35:24;5.28;;;4.78;;
21601;SDS011;10963;50.934;4.668;2022-09-03T11:37:59;5.38;;;4.82;;
21601;SDS011;10963;50.934;4.668;2022-09-03T11:45:48;7.15;;;4.90;;
21601;SDS011;10963;50.934;4.668;2022-09-03T11:56:26;7.13;;;4.13;;
21601;SDS011;10963;50.934;4.668;2022-09-03T12:04:14;4.65;;;4.25;;
21601;SDS011;10963;50.934;4.668;2022-09-03T12:12:11;6.60;;;4.53;;
21601;SDS011;10963;50.934;4.668;2022-09-03T12:14:56;4.95;;;4.45;;
21601;SDS011;10963;50.934;4.668;2022-09-03T12:20:14;5.38;;;4.88;;
21601;SDS011;10963;50.934;4.668;2022-09-03T12:22:47;6.72;;;4.57;;
21601;SDS011;10963;50.934;4.668;2022-09-03T12:25:15;6.40;;;4.63;;
21601;SDS011;10963;50.934;4.668;2022-09-03T12:27:41;4.85;;;4.38;;
21601;SDS011;10963;50.934;4.668;2022-09-03T12:30:13;4.60;;;4.20;;
21601;SDS011;10963;50.934;4.668;2022-09-03T12:32:42;6.20;;;4.15;;
21601;SDS011;10963;50.934;4.668;2022-09-03T12:35:19;5.53;;;4.45;;
21601;SDS011;10963;50.934;4.668;2022-09-03T12:37:51;10.60;;;4.85;;
21601;SDS011;10963;50.934;4.668;2022-09-03T12:42:45;4.75;;;3.92;;
21601;SDS011;10963;50.934;4.668;2022-09-03T12:45:12;5.93;;;4.47;;
21601;SDS011;10963;50.934;4.668;2022-09-03T12:47:41;6.28;;;4.43;;
21601;SDS011;10963;50.934;4.668;2022-09-03T12:50:12;4.25;;;3.83;;
21601;SDS011;10963;50.934;4.668;2022-09-03T12:52:48;4.45;;;4.05;;
21601;SDS011;10963;50.934;4.668;2022-09-03T12:55:20;4.35;;;4.00;;
21601;SDS011;10963;50.934;4.668;2022-09-03T12:58:41;6.55;;;4.28;;
21601;SDS011;10963;50.934;4.668;2022-09-03T13:00:58;6.82;;;4.22;;
21601;SDS011;10963;50.934;4.668;2022-09-03T13:03:29;5.05;;;4.40;;
21601;SDS011;10963;50.934;4.668;2022-09-03T13:06:14;4.53;;;4.13;;
21601;SDS011;10963;50.934;4.668;2022-09-03T13:08:48;5.88;;;4.10;;
21601;SDS011;10963;50.934;4.668;2022-09-03T13:11:19;6.10;;;3.90;;
21601;SDS011;10963;50.934;4.668;2022-09-03T13:14:02;6.43;;;4.20;;
21601;SDS011;10963;50.934;4.668;2022-09-03T13:34:16;4.07;;;3.67;;
21601;SDS011;10963;50.934;4.668;2022-09-03T13:37:39;4.28;;;3.58;;
21601;SDS011;10963;50.934;4.668;2022-09-03T13:40:15;6.82;;;4.55;;
21601;SDS011;10963;50.934;4.668;2022-09-03T13:45:44;3.40;;;3.10;;
21601;SDS011;10963;50.934;4.668;2022-09-03T13:48:35;4.90;;;3.60;;
21601;SDS011;10963;50.934;4.668;2022-09-03T13:51:30;4.50;;;3.92;;
21601;SDS011;10963;50.934;4.668;2022-09-03T13:54:38;4.55;;;3.63;;
21601;SDS011;10963;50.934;4.668;2022-09-03T14:00:10;3.30;;;3.03;;
21601;SDS011;10963;50.934;4.668;2022-09-03T14:05:33;3.90;;;3.60;;
21601;SDS011;10963;50.934;4.668;2022-09-03T14:08:07;3.88;;;3.58;;
21601;SDS011;10963;50.934;4.668;2022-09-03T14:10:57;6.60;;;3.67;;
21601;SDS011;10963;50.934;4.668;2022-09-03T14:13:28;4.57;;;3.70;;
21601;SDS011;10963;50.934;4.668;2022-09-03T14:16:06;4.97;;;3.78;;
21601;SDS011;10963;50.934;4.668;2022-09-03T14:21:18;4.43;;;4.03;;
21601;SDS011;10963;50.934;4.668;2022-09-03T14:24:16;4.70;;;4.22;;
21601;SDS011;10963;50.934;4.668;2022-09-03T14:26:58;5.75;;;3.83;;
21601;SDS011;10963;50.934;4.668;2022-09-03T14:29:27;4.35;;;3.72;;
21601;SDS011;10963;50.934;4.668;2022-09-03T14:40:41;4.32;;;3.95;;
21601;SDS011;10963;50.934;4.668;2022-09-03T14:46:06;4.13;;;3.83;;
21601;SDS011;10963;50.934;4.668;2022-09-03T15:05:39;5.28;;;3.72;;
21601;SDS011;10963;50.934;4.668;2022-09-03T15:10:56;5.75;;;4.18;;
21601;SDS011;10963;50.934;4.668;2022-09-03T15:17:14;7.03;;;4.38;;
21601;SDS011;10963;50.934;4.668;2022-09-03T15:25:17;6.65;;;5.80;;
21601;SDS011;10963;50.934;4.668;2022-09-03T15:36:26;7.47;;;5.97;;
21601;SDS011;10963;50.934;4.668;2022-09-03T15:39:09;8.87;;;5.70;;
21601;SDS011;10963;50.934;4.668;2022-09-03T15:41:55;8.33;;;5.67;;
21601;SDS011;10963;50.934;4.668;2022-09-03T15:44:33;7.77;;;5.40;;
21601;SDS011;10963;50.934;4.668;2022-09-03T15:55:34;9.33;;;4.77;;
21601;SDS011;10963;50.934;4.668;2022-09-03T16:08:51;7.00;;;5.27;;
21601;SDS011;10963;50.934;4.668;2022-09-03T16:14:26;4.77;;;4.33;;
21601;SDS011;10963;50.934;4.668;2022-09-03T16:20:23;5.20;;;4.70;;
21601;SDS011;10963;50.934;4.668;2022-09-03T16:22:54;4.75;;;4.30;;
21601;SDS011;10963;50.934;4.668;2022-09-03T16:25:34;5.10;;;4.40;;
21601;SDS011;10963;50.934;4.668;2022-09-03T16:28:13;11.23;;;4.67;;
21601;SDS011;10963;50.934;4.668;2022-09-03T16:58:25;5.60;;;3.77;;
21601;SDS011;10963;50.934;4.668;2022-09-03T17:09:40;1.67;;;1.57;;
21601;SDS011;10963;50.934;4.668;2022-09-03T17:12:38;1.80;;;1.67;;
21601;SDS011;10963;50.934;4.668;2022-09-03T17:15:38;1.50;;;1.40;;
21601;SDS011;10963;50.934;4.668;2022-09-03T17:37:39;4.20;;;1.97;;
21601;SDS011;10963;50.934;4.668;2022-09-03T17:48:28;2.93;;;2.10;;
21601;SDS011;10963;50.934;4.668;2022-09-03T17:51:30;3.70;;;2.40;;
21601;SDS011;10963;50.934;4.668;2022-09-03T17:54:33;3.23;;;2.20;;
21601;SDS011;10963;50.934;4.668;2022-09-03T17:57:12;2.40;;;2.20;;
21601;SDS011;10963;50.934;4.668;2022-09-03T17:59:57;3.20;;;2.23;;
21601;SDS011;10963;50.934;4.668;2022-09-03T18:02:36;2.67;;;1.97;;
21601;SDS011;10963;50.934;4.668;2022-09-03T18:16:08;3.93;;;2.47;;
21601;SDS011;10963;50.934;4.668;2022-09-03T18:18:45;3.17;;;2.63;;
21601;SDS011;10963;50.934;4.668;2022-09-03T18:21:20;3.67;;;3.03;;
21601;SDS011;10963;50.934;4.668;2022-09-03T18:24:20;3.67;;;2.80;;
21601;SDS011;10963;50.934;4.668;2022-09-03T18:27:16;4.17;;;2.43;;
21601;SDS011;10963;50.934;4.668;2022-09-03T18:30:16;4.83;;;2.90;;
21601;SDS011;10963;50.934;4.668;2022-09-03T18:33:01;5.67;;;3.30;;
21601;SDS011;10963;50.934;4.668;2022-09-03T18:35:47;5.63;;;3.57;;
21601;SDS011;10963;50.934;4.668;2022-09-03T18:38:33;4.50;;;3.70;;
21601;SDS011;10963;50.934;4.668;2022-09-03T18:47:49;5.13;;;3.87;;
21601;SDS011;10963;50.934;4.668;2022-09-03T18:56:58;6.00;;;3.93;;
21601;SDS011;10963;50.934;4.668;2022-09-03T18:59:58;4.87;;;3.63;;
21601;SDS011;10963;50.934;4.668;2022-09-03T19:05:49;4.63;;;3.93;;
21601;SDS011;10963;50.934;4.668;2022-09-03T19:09:03;3.77;;;3.27;;
21601;SDS011;10963;50.934;4.668;2022-09-03T19:12:19;4.27;;;3.70;;
21601;SDS011;10963;50.934;4.668;2022-09-03T19:15:18;6.73;;;4.00;;
21601;SDS011;10963;50.934;4.668;2022-09-03T19:21:28;5.53;;;4.20;;
21601;SDS011;10963;50.934;4.668;2022-09-03T19:24:19;5.53;;;4.60;;
21601;SDS011;10963;50.934;4.668;2022-09-03T19:30:25;6.80;;;4.27;;
21601;SDS011;10963;50.934;4.668;2022-09-03T19:45:25;5.20;;;4.13;;
21601;SDS011;10963;50.934;4.668;2022-09-03T19:51:23;7.93;;;4.10;;
21601;SDS011;10963;50.934;4.668;2022-09-03T19:54:17;7.43;;;3.90;;
21601;SDS011;10963;50.934;4.668;2022-09-03T19:57:05;6.93;;;4.40;;
21601;SDS011;10963;50.934;4.668;2022-09-03T19:59:55;4.97;;;4.00;;
21601;SDS011;10963;50.934;4.668;2022-09-03T20:02:40;5.60;;;4.03;;
21601;SDS011;10963;50.934;4.668;2022-09-03T20:05:28;5.43;;;3.90;;
21601;SDS011;10963;50.934;4.668;2022-09-03T20:08:16;5.90;;;4.10;;
21601;SDS011;10963;50.934;4.668;2022-09-03T20:11:02;6.07;;;4.63;;
21601;SDS011;10963;50.934;4.668;2022-09-03T20:13:29;5.43;;;4.20;;
21601;SDS011;10963;50.934;4.668;2022-09-03T20:16:29;5.73;;;4.60;;
21601;SDS011;10963;50.934;4.668;2022-09-03T20:24:53;6.73;;;4.53;;
21601;SDS011;10963;50.934;4.668;2022-09-03T20:30:39;6.40;;;5.63;;
21601;SDS011;10963;50.934;4.668;2022-09-03T20:55:13;6.87;;;4.90;;
21601;SDS011;10963;50.934;4.668;2022-09-03T20:58:15;5.63;;;4.40;;
21601;SDS011;10963;50.934;4.668;2022-09-03T21:00:51;6.40;;;4.70;;
21601;SDS011;10963;50.934;4.668;2022-09-03T21:03:40;5.80;;;4.77;;
21601;SDS011;10963;50.934;4.668;2022-09-03T21:14:21;8.10;;;4.93;;
21601;SDS011;10963;50.934;4.668;2022-09-03T21:25:15;8.73;;;5.90;;
21601;SDS011;10963;50.934;4.668;2022-09-03T21:27:53;7.67;;;6.50;;
21601;SDS011;10963;50.934;4.668;2022-09-03T21:30:25;8.33;;;6.43;;
21601;SDS011;10963;50.934;4.668;2022-09-03T21:33:01;8.13;;;6.43;;
21601;SDS011;10963;50.934;4.668;2022-09-03T21:35:34;9.40;;;6.20;;
21601;SDS011;10963;50.934;4.668;2022-09-03T21:38:07;6.57;;;5.90;;
21601;SDS011;10963;50.934;4.668;2022-09-03T21:40:41;8.07;;;6.07;;
21601;SDS011;10963;50.934;4.668;2022-09-03T21:43:35;11.67;;;9.37;;
21601;SDS011;10963;50.934;4.668;2022-09-03T21:46:05;12.20;;;8.20;;
21601;SDS011;10963;50.934;4.668;2022-09-03T21:51:20;13.90;;;10.40;;
21601;SDS011;10963;50.934;4.668;2022-09-03T21:53:58;14.70;;;10.07;;
21601;SDS011;10963;50.934;4.668;2022-09-03T22:02:22;12.10;;;8.10;;
21601;SDS011;10963;50.934;4.668;2022-09-03T22:04:53;12.23;;;8.90;;
21601;SDS011;10963;50.934;4.668;2022-09-03T22:10:25;11.03;;;7.93;;
21601;SDS011;10963;50.934;4.668;2022-09-03T22:16:08;10.63;;;8.37;;
21601;SDS011;10963;50.934;4.668;2022-09-03T22:18:57;12.37;;;7.83;;
21601;SDS011;10963;50.934;4.668;2022-09-03T22:21:28;8.60;;;7.70;;
21601;SDS011;10963;50.934;4.668;2022-09-03T22:32:14;10.60;;;7.10;;
21601;SDS011;10963;50.934;4.668;2022-09-03T22:46:13;9.00;;;7.13;;
21601;SDS011;10963;50.934;4.668;2022-09-03T22:51:13;10.20;;;6.90;;
21601;SDS011;10963;50.934;4.668;2022-09-03T22:56:28;8.80;;;6.77;;
21601;SDS011;10963;50.934;4.668;2022-09-03T23:01:57;8.17;;;6.33;;
21601;SDS011;10963;50.934;4.668;2022-09-03T23:04:40;9.83;;;6.70;;
21601;SDS011;10963;50.934;4.668;2022-09-03T23:10:12;6.80;;;5.97;;
21601;SDS011;10963;50.934;4.668;2022-09-03T23:13:28;6.87;;;6.13;;
21601;SDS011;10963;50.934;4.668;2022-09-03T23:15:34;6.90;;;5.80;;
21601;SDS011;10963;50.934;4.668;2022-09-03T23:18:08;8.07;;;5.70;;
21601;SDS011;10963;50.934;4.668;2022-09-03T23:20:43;6.73;;;6.03;;
21601;SDS011;10963;50.934;4.668;2022-09-03T23:23:19;8.43;;;5.57;;
21601;SDS011;10963;50.934;4.668;2022-09-03T23:26:08;7.27;;;6.00;;
21601;SDS011;10963;50.934;4.668;2022-09-03T23:28:37;7.20;;;6.20;;
21601;SDS011;10963;50.934;4.668;2022-09-03T23:33:43;8.50;;;5.93;;
21601;SDS011;10963;50.934;4.668;2022-09-03T23:36:14;6.93;;;5.50;;